Time;durP1;ratioP1;P1;durP2;ratioP2;P2;SDS_P1;SDS_P2;PMS_P1;PMS_P2;Temp;Humidity;BMP_temperature;BMP_pressure;BME280_temperature;BME280_humidity;BME280_pressure;Samples;Min_cycle;Max_cycle;Signal;HPM_P1;HPM_P2
2022/07/11 00:06:16;;;;;;;3.63;2.30;;;12.80;99.90;;;;;;21064507;28;20553;-60
2022/07/11 00:16:18;;;;;;;6.80;2.95;;;12.70;99.90;;;;;;21063941;28;20039;-60
2022/07/11 00:26:20;;;;;;;4.68;3.22;;;12.60;99.90;;;;;;21019514;28;20439;-60
2022/07/11 00:36:23;;;;;;;4.03;3.03;;;12.50;99.90;;;;;;20979207;28;20436;-60
2022/07/11 00:46:26;;;;;;;2.60;2.38;;;12.40;99.90;;;;;;20978662;28;20040;-59
2022/07/11 00:56:30;;;;;;;2.95;2.50;;;12.20;99.90;;;;;;20988398;28;20032;-59
2022/07/11 01:06:32;;;;;;;3.92;2.75;;;12.10;99.90;;;;;;21059804;28;20509;-60
2022/07/11 01:16:35;;;;;;;2.75;2.22;;;12.10;99.90;;;;;;21059040;28;20036;-59
2022/07/11 01:26:37;;;;;;;5.18;2.80;;;11.90;99.90;;;;;;21058877;28;20047;-59
2022/07/11 01:36:39;;;;;;;5.22;2.97;;;11.80;99.90;;;;;;21058330;28;20392;-59
2022/07/11 01:46:42;;;;;;;3.05;2.47;;;11.80;99.90;;;;;;21025425;28;20041;-60
2022/07/11 01:56:45;;;;;;;4.40;2.45;;;11.80;99.90;;;;;;20972251;28;20036;-59
2022/07/11 02:06:47;;;;;;;5.93;2.47;;;11.70;99.90;;;;;;20970948;28;20040;-60
2022/07/11 02:16:49;;;;;;;3.33;2.45;;;11.70;99.90;;;;;;20971457;28;20060;-60
2022/07/11 02:26:52;;;;;;;3.67;2.40;;;11.60;99.90;;;;;;21019340;28;20043;-60
2022/07/11 02:36:54;;;;;;;2.95;2.60;;;11.50;99.90;;;;;;21053161;28;20373;-60
2022/07/11 02:46:56;;;;;;;2.55;2.13;;;11.60;99.90;;;;;;21053459;28;20039;-59
2022/07/11 02:56:59;;;;;;;4.28;1.92;;;11.50;99.90;;;;;;21037428;28;20406;-59
2022/07/11 03:07:02;;;;;;;3.40;2.17;;;11.50;99.90;;;;;;20967633;28;20091;-59
2022/07/11 03:17:04;;;;;;;3.25;2.40;;;11.40;99.90;;;;;;20967211;28;20094;-60
2022/07/11 03:27:07;;;;;;;3.90;2.50;;;11.30;99.90;;;;;;20967500;28;20040;-59
2022/07/11 03:37:10;;;;;;;3.63;2.80;;;11.30;99.90;;;;;;20966461;28;20086;-58
2022/07/11 03:47:13;;;;;;;4.75;2.92;;;11.40;99.90;;;;;;21003740;28;20089;-55
2022/07/11 03:57:15;;;;;;;4.57;2.85;;;11.60;99.90;;;;;;21049571;28;20032;-60
2022/07/11 04:07:18;;;;;;;4.35;3.25;;;11.80;99.90;;;;;;21048663;28;20047;-60
2022/07/11 04:17:20;;;;;;;4.07;2.95;;;12.00;99.90;;;;;;21048461;28;20062;-59
2022/07/11 04:27:24;;;;;;;5.40;2.80;;;12.20;99.90;;;;;;21001705;28;20058;-60
2022/07/11 04:37:26;;;;;;;3.65;2.40;;;12.30;99.90;;;;;;20978979;28;20436;-60
2022/07/11 04:47:28;;;;;;;3.97;2.70;;;12.30;99.90;;;;;;20961828;28;20133;-54
2022/07/11 04:57:30;;;;;;;3.35;2.80;;;12.40;99.90;;;;;;20996852;28;20056;-60
2022/07/11 05:07:33;;;;;;;5.57;2.97;;;12.40;99.90;;;;;;21060276;28;20044;-51
2022/07/11 05:17:36;;;;;;;3.60;2.60;;;12.40;99.90;;;;;;21060225;28;20089;-53
2022/07/11 05:27:38;;;;;;;4.22;2.60;;;12.50;99.90;;;;;;21058544;28;20040;-60
2022/07/11 05:37:40;;;;;;;3.78;2.80;;;12.70;99.90;;;;;;21040679;28;20032;-54
2022/07/11 05:47:43;;;;;;;6.43;2.83;;;12.90;99.90;;;;;;21016617;28;20067;-60
2022/07/11 05:57:45;;;;;;;4.63;2.83;;;13.10;99.90;;;;;;20972479;28;20044;-60
2022/07/11 06:18:09;;;;;;;1.90;1.55;;;14.20;99.90;;;;;;20971786;28;20032;-60
2022/07/11 06:28:11;;;;;;;4.75;1.48;;;16.90;99.90;;;;;;21013763;28;20032;-59
2022/07/11 06:38:15;;;;;;;2.60;1.15;;;22.10;98.30;;;;;;21054254;28;20036;-62
2022/07/11 06:48:20;;;;;;;3.05;1.30;;;24.90;91.50;;;;;;21052348;28;20208;-62
2022/07/11 06:58:34;;;;;;;2.40;1.10;;;26.00;85.90;;;;;;21041822;28;20542;-60
2022/07/11 07:08:37;;;;;;;1.50;1.20;;;27.10;81.70;;;;;;20967681;28;20052;-60
2022/07/11 07:18:41;;;;;;;1.63;1.50;;;28.20;79.50;;;;;;20967609;28;20028;-56
2022/07/11 07:28:43;;;;;;;1.83;1.27;;;28.40;76.80;;;;;;20967298;28;20090;-60
2022/07/11 07:38:47;;;;;;;3.42;1.92;;;28.20;75.40;;;;;;20967412;28;20389;-60
2022/07/11 07:48:49;;;;;;;5.95;2.13;;;26.20;79.30;;;;;;21009488;28;20051;-60
2022/07/11 07:58:52;;;;;;;2.55;2.15;;;24.30;83.80;;;;;;21051197;28;20518;-60
2022/07/11 08:08:55;;;;;;;2.58;1.80;;;23.90;89.50;;;;;;21065013;28;20562;-60
2022/07/11 08:18:59;;;;;;;6.95;3.20;;;24.30;87.40;;;;;;21063947;28;20036;-59
2022/07/11 08:29:03;;;;;;;3.33;2.60;;;23.00;90.00;;;;;;20995715;28;20063;-59
2022/07/11 08:39:05;;;;;;;3.55;2.95;;;22.60;91.10;;;;;;20995514;28;20082;-60
2022/07/11 08:49:08;;;;;;;5.63;2.80;;;22.40;92.30;;;;;;20978593;28;20416;-58
2022/07/11 08:59:17;;;;;;;3.05;2.75;;;22.10;93.80;;;;;;21027294;28;20044;-62
2022/07/11 09:09:19;;;;;;;3.15;2.50;;;22.20;92.30;;;;;;21060384;28;20052;-63
2022/07/11 09:19:24;;;;;;;5.93;3.35;;;21.70;93.30;;;;;;21059624;28;20036;-62
2022/07/11 09:29:27;;;;;;;5.50;3.20;;;21.10;95.60;;;;;;21058579;28;20028;-62
2022/07/11 09:39:30;;;;;;;2.90;2.30;;;20.80;96.30;;;;;;21057756;28;20039;-60
2022/07/11 09:49:35;;;;;;;4.47;3.05;;;20.60;97.30;;;;;;20984744;28;20040;-56
2022/07/11 09:59:37;;;;;;;3.15;2.63;;;21.00;97.60;;;;;;20972120;28;20032;-62
2022/07/11 10:09:40;;;;;;;4.70;2.67;;;21.50;96.70;;;;;;20971548;28;20048;-61
2022/07/11 10:19:48;;;;;;;3.63;2.60;;;21.40;96.60;;;;;;20970857;28;20048;-61
2022/07/11 10:29:53;;;;;;;4.00;2.60;;;21.30;97.10;;;;;;20971184;28;20366;-61
2022/07/11 10:39:59;;;;;;;3.05;2.75;;;21.30;96.70;;;;;;20969365;28;20040;-54
2022/07/11 10:50:29;;;;;;;3.47;2.50;;;21.30;95.60;;;;;;20985495;28;20478;-61
2022/07/11 11:00:32;;;;;;;6.07;2.63;;;22.30;95.90;;;;;;21013150;28;20040;-56
2022/07/11 11:10:44;;;;;;;4.57;2.20;;;23.20;93.50;;;;;;21049242;28;20083;-61
2022/07/11 11:20:47;;;;;;;4.65;2.15;;;22.70;93.50;;;;;;21047724;28;20088;-55
2022/07/11 11:30:54;;;;;;;3.15;2.55;;;22.50;93.70;;;;;;21047894;28;20036;-57
2022/07/11 11:40:56;;;;;;;2.83;2.33;;;22.50;93.50;;;;;;21042526;28;20039;-62
2022/07/11 11:51:08;;;;;;;4.32;2.38;;;22.70;94.30;;;;;;20976437;28;20058;-61
2022/07/11 12:01:11;;;;;;;2.55;2.10;;;22.70;92.70;;;;;;20976690;28;20366;-61
2022/07/11 12:11:15;;;;;;;5.13;2.58;;;22.70;95.10;;;;;;20851127;28;3464604;-61
2022/07/11 12:21:17;;;;;;;3.78;2.30;;;22.80;93.40;;;;;;20983143;28;20094;-61
2022/07/11 12:31:19;;;;;;;2.83;2.00;;;22.90;93.60;;;;;;21063270;28;20401;-61
2022/07/11 12:41:22;;;;;;;2.80;2.50;;;23.20;94.20;;;;;;21062538;28;20055;-61
2022/07/11 12:51:34;;;;;;;2.75;2.35;;;23.20;92.30;;;;;;21061607;28;20036;-61
2022/07/11 13:01:53;;;;;;;3.08;2.67;;;22.90;92.70;;;;;;21007168;28;20037;-61
2022/07/11 13:11:55;;;;;;;4.00;2.35;;;22.90;92.80;;;;;;20976600;28;20452;-61
2022/07/11 13:21:58;;;;;;;3.53;2.42;;;22.60;93.40;;;;;;20975408;28;20028;-62
2022/07/11 13:32:01;;;;;;;8.73;3.40;;;23.80;92.30;;;;;;20974703;28;20036;-62
2022/07/11 13:42:03;;;;;;;3.55;2.65;;;24.40;92.30;;;;;;20957423;28;20041;-62
2022/07/11 13:52:06;;;;;;;3.83;3.00;;;24.20;91.10;;;;;;21050030;28;20036;-62
2022/07/11 14:02:09;;;;;;;3.67;2.50;;;23.90;91.80;;;;;;20992592;28;20040;-62
2022/07/11 14:12:12;;;;;;;4.57;2.67;;;23.50;93.10;;;;;;20971333;28;20501;-62
2022/07/11 14:22:15;;;;;;;3.50;2.00;;;25.80;90.30;;;;;;20981274;28;20036;-62
2022/07/11 14:32:18;;;;;;;4.47;2.50;;;25.80;90.20;;;;;;21053516;28;20554;-62
2022/07/11 14:42:20;;;;;;;6.82;2.63;;;25.70;89.10;;;;;;21052950;28;20089;-62
2022/07/11 14:52:22;;;;;;;4.00;2.58;;;27.00;87.00;;;;;;21052693;28;20031;-61
2022/07/11 15:12:47;;;;;;;4.25;2.78;;;24.00;90.30;;;;;;20950983;28;20489;-60
2022/07/11 15:22:51;;;;;;;3.55;2.40;;;23.20;92.10;;;;;;20950948;28;20033;-61
2022/07/11 15:32:53;;;;;;;5.57;3.15;;;22.30;93.90;;;;;;20966681;28;20058;-61
2022/07/11 15:42:55;;;;;;;4.70;2.90;;;23.50;92.20;;;;;;20966675;28;20630;-60
2022/07/11 15:52:58;;;;;;;7.45;3.20;;;22.50;93.20;;;;;;21050038;28;20028;-60
2022/07/11 16:03:00;;;;;;;4.40;2.53;;;21.40;95.00;;;;;;21049310;28;20044;-60
2022/07/11 16:13:03;;;;;;;7.55;3.10;;;21.00;96.30;;;;;;21043308;28;20056;-60
2022/07/11 16:23:06;;;;;;;6.78;3.30;;;21.10;95.60;;;;;;21037491;28;20036;-60
2022/07/11 16:33:08;;;;;;;3.75;2.53;;;21.00;95.70;;;;;;20979497;28;20058;-60
2022/07/11 16:43:19;;;;;;;5.80;3.05;;;20.90;95.50;;;;;;20979293;28;20161;-60
2022/07/11 16:53:25;;;;;;;3.15;2.30;;;20.80;95.80;;;;;;20978794;28;20032;-55
2022/07/11 17:03:28;;;;;;;4.13;2.60;;;20.50;96.60;;;;;;21046336;28;20077;-55
2022/07/11 17:13:31;;;;;;;5.28;2.38;;;20.10;97.40;;;;;;21043594;28;20562;-59
2022/07/11 17:23:38;;;;;;;4.20;2.23;;;19.70;98.80;;;;;;21077456;28;20035;-59
2022/07/11 17:33:41;;;;;;;3.00;2.20;;;19.40;99.10;;;;;;21056843;28;20032;-60
2022/07/11 17:43:44;;;;;;;2.60;2.08;;;19.20;99.90;;;;;;21050748;28;20040;-60
2022/07/11 17:53:48;;;;;;;3.92;2.50;;;18.90;99.90;;;;;;20989719;28;20473;-59
2022/07/11 18:03:50;;;;;;;3.90;2.50;;;18.70;99.90;;;;;;20965328;28;20082;-56
2022/07/11 18:13:53;;;;;;;3.42;2.38;;;18.60;99.90;;;;;;20971598;28;20409;-61
2022/07/11 18:23:56;;;;;;;3.55;2.55;;;18.40;99.90;;;;;;20996312;28;20085;-59
2022/07/11 18:33:59;;;;;;;4.85;2.60;;;18.10;99.90;;;;;;21054020;28;20032;-59
2022/07/11 18:44:06;;;;;;;5.57;2.70;;;18.00;99.90;;;;;;21052747;28;20542;-59
2022/07/11 18:54:09;;;;;;;4.25;2.70;;;17.80;99.90;;;;;;21052366;28;20105;-59
2022/07/11 19:04:12;;;;;;;7.40;3.65;;;17.60;99.90;;;;;;20972745;28;20036;-56
2022/07/11 19:14:15;;;;;;;4.88;2.85;;;17.40;99.90;;;;;;20968065;28;20028;-59
2022/07/11 19:24:17;;;;;;;7.43;2.90;;;17.30;99.90;;;;;;20967420;28;20393;-59
2022/07/11 19:34:21;;;;;;;6.03;3.88;;;17.10;99.90;;;;;;20967395;28;20041;-59
2022/07/11 19:44:24;;;;;;;3.83;3.50;;;17.00;99.90;;;;;;20962778;28;20550;-59
2022/07/11 20:04:47;;;;;;;7.60;4.80;;;16.70;99.90;;;;;;21065613;28;20048;-59
2022/07/11 20:14:50;;;;;;;7.55;5.15;;;16.70;99.90;;;;;;21064666;28;20044;-59
2022/07/11 20:24:52;;;;;;;6.93;4.50;;;16.80;99.90;;;;;;21031367;28;20025;-55
2022/07/11 20:34:55;;;;;;;4.95;4.18;;;16.80;99.90;;;;;;20979611;28;20082;-55
2022/07/11 20:44:58;;;;;;;4.80;4.30;;;16.80;99.90;;;;;;20979963;28;20082;-59
2022/07/11 20:55:01;;;;;;;6.63;5.25;;;16.70;99.90;;;;;;20978025;28;20036;-59
2022/07/11 21:05:04;;;;;;;5.85;4.72;;;16.60;99.90;;;;;;21075761;28;20066;-59
2022/07/11 21:15:07;;;;;;;7.85;6.57;;;16.40;99.90;;;;;;21059891;28;20031;-59
2022/07/11 21:25:09;;;;;;;13.13;9.65;;;15.90;99.90;;;;;;21059468;28;20077;-59
2022/07/11 21:35:15;;;;;;;8.57;7.80;;;15.30;99.90;;;;;;21058838;28;20093;-59
2022/07/11 21:45:18;;;;;;;10.45;8.55;;;14.80;99.90;;;;;;21037620;28;20502;-59
2022/07/11 21:55:20;;;;;;;11.95;9.45;;;14.50;99.90;;;;;;20974699;28;20078;-59
2022/07/11 22:05:24;;;;;;;11.85;10.35;;;14.40;99.90;;;;;;20973299;28;20444;-53
2022/07/11 22:15:26;;;;;;;10.18;8.32;;;14.40;99.90;;;;;;20971412;28;20032;-59
2022/07/11 22:25:29;;;;;;;10.80;8.30;;;14.50;99.90;;;;;;21007499;28;20097;-59
2022/07/11 22:35:32;;;;;;;7.68;6.85;;;14.60;99.90;;;;;;21053485;28;20102;-59
2022/07/11 22:45:34;;;;;;;13.20;9.20;;;14.60;99.90;;;;;;21053713;28;20105;-58
2022/07/11 22:55:37;;;;;;;11.35;10.18;;;14.50;99.90;;;;;;21048977;28;20082;-54
2022/07/11 23:05:39;;;;;;;13.15;11.38;;;14.30;99.90;;;;;;20968904;28;20044;-58
2022/07/11 23:15:41;;;;;;;11.95;9.90;;;14.00;99.90;;;;;;20968119;28;20028;-59
2022/07/11 23:25:43;;;;;;;13.18;10.52;;;14.00;99.90;;;;;;20967510;28;20044;-53
2022/07/11 23:35:46;;;;;;;14.35;12.10;;;13.90;99.90;;;;;;20981389;28;20032;-59
2022/07/11 23:45:49;;;;;;;12.02;10.43;;;13.70;99.90;;;;;;21008339;28;20104;-60
2022/07/11 23:55:52;;;;;;;11.07;9.88;;;13.70;99.90;;;;;;21066538;28;20032;-58
